createdAt,value
2023-01-29T00:00:06.963Z,13.00
2023-01-29T00:02:40.793Z,11.70
2023-01-29T00:05:26.494Z,10.52
2023-01-29T00:07:58.606Z,12.70
2023-01-29T00:10:27.466Z,12.30
2023-01-29T00:12:55.358Z,14.05
2023-01-29T00:15:24.164Z,11.82
2023-01-29T00:17:52.090Z,10.70
2023-01-29T00:20:20.566Z,11.65
2023-01-29T00:22:49.071Z,12.38
2023-01-29T00:25:18.542Z,11.07
2023-01-29T00:30:20.119Z,10.40
2023-01-29T00:32:48.399Z,11.80
2023-01-29T00:35:16.416Z,12.90
2023-01-29T00:37:45.320Z,11.38
2023-01-29T00:40:13.926Z,9.88
2023-01-29T00:43:03.455Z,12.60
2023-01-29T00:45:31.469Z,10.63
2023-01-29T00:47:59.413Z,8.90
2023-01-29T00:50:28.288Z,11.77
2023-01-29T00:52:56.241Z,11.13
2023-01-29T00:55:24.662Z,12.32
2023-01-29T00:57:53.917Z,12.52
2023-01-29T01:00:22.646Z,11.55
2023-01-29T01:03:08.054Z,12.27
2023-01-29T01:05:36.954Z,13.02
2023-01-29T01:08:28.051Z,14.10
2023-01-29T01:11:03.829Z,13.35
2023-01-29T01:13:35.631Z,13.80
2023-01-29T01:16:03.802Z,13.75
2023-01-29T01:18:32.112Z,14.63
2023-01-29T01:21:00.629Z,13.88
2023-01-29T01:23:28.596Z,14.07
2023-01-29T01:25:57.088Z,13.90
2023-01-29T01:28:25.807Z,15.23
2023-01-29T01:30:55.307Z,11.88
2023-01-29T01:33:23.423Z,15.25
2023-01-29T01:35:51.424Z,14.68
2023-01-29T01:38:19.395Z,17.08
2023-01-29T01:40:47.725Z,16.25
2023-01-29T01:43:17.448Z,15.45
2023-01-29T01:45:46.720Z,13.85
2023-01-29T01:48:21.166Z,13.93
2023-01-29T01:50:53.923Z,15.68
2023-01-29T01:53:25.000Z,16.48
2023-01-29T01:55:59.999Z,15.20
2023-01-29T01:58:33.546Z,15.63
2023-01-29T02:01:02.341Z,13.73
2023-01-29T02:03:54.502Z,14.43
2023-01-29T02:06:40.420Z,15.88
2023-01-29T02:09:34.011Z,14.80
2023-01-29T02:12:03.636Z,17.42
2023-01-29T02:14:32.191Z,17.13
2023-01-29T02:17:02.813Z,17.98
2023-01-29T02:19:42.947Z,19.50
2023-01-29T02:22:30.606Z,18.60
2023-01-29T02:25:31.502Z,17.00
2023-01-29T02:28:13.795Z,16.15
2023-01-29T02:30:46.235Z,16.52
2023-01-29T02:33:24.616Z,14.73
2023-01-29T02:36:00.332Z,15.85
2023-01-29T02:38:38.065Z,15.07
2023-01-29T02:41:12.677Z,16.35
2023-01-29T02:43:48.635Z,18.48
2023-01-29T02:46:22.336Z,20.05
2023-01-29T02:49:00.812Z,18.05
2023-01-29T02:51:37.506Z,16.48
2023-01-29T02:54:15.304Z,17.25
2023-01-29T02:56:50.003Z,17.73
2023-01-29T02:59:27.097Z,17.05
2023-01-29T03:01:59.770Z,16.55
2023-01-29T03:04:33.171Z,19.50
2023-01-29T03:07:04.901Z,20.42
2023-01-29T03:09:36.431Z,18.10
2023-01-29T03:12:19.960Z,18.48
2023-01-29T03:15:10.638Z,17.40
2023-01-29T03:20:18.257Z,15.70
2023-01-29T03:22:53.392Z,16.27
2023-01-29T03:25:41.687Z,17.48
2023-01-29T03:28:30.878Z,16.40
2023-01-29T03:31:22.753Z,15.77
2023-01-29T03:34:03.911Z,14.43
2023-01-29T03:36:40.214Z,18.85
2023-01-29T03:39:11.485Z,18.15
2023-01-29T03:41:48.135Z,15.77
2023-01-29T03:44:19.635Z,15.43
2023-01-29T03:46:57.281Z,16.65
2023-01-29T03:49:33.745Z,16.75
2023-01-29T03:52:10.542Z,18.38
2023-01-29T03:54:47.887Z,16.38
2023-01-29T03:57:25.288Z,15.25
2023-01-29T03:59:58.673Z,18.85
2023-01-29T04:03:03.489Z,19.27
2023-01-29T04:05:41.171Z,18.30
2023-01-29T04:08:32.679Z,16.05
2023-01-29T04:11:15.868Z,15.05
2023-01-29T04:13:45.400Z,18.48
2023-01-29T04:16:20.647Z,16.30
2023-01-29T04:19:09.014Z,20.52
2023-01-29T04:21:41.634Z,16.98
2023-01-29T04:24:13.433Z,17.30
2023-01-29T04:27:01.653Z,16.88
2023-01-29T04:29:46.911Z,14.75
2023-01-29T04:32:20.143Z,17.42
2023-01-29T04:35:02.484Z,18.25
2023-01-29T04:37:40.005Z,16.25
2023-01-29T04:40:19.330Z,15.57
2023-01-29T04:42:56.147Z,18.65
2023-01-29T04:45:33.587Z,17.27
2023-01-29T04:48:11.461Z,18.10
2023-01-29T04:50:45.445Z,18.83
2023-01-29T04:53:20.060Z,17.50
2023-01-29T04:55:52.853Z,16.60
2023-01-29T04:58:28.358Z,18.58
2023-01-29T05:00:56.472Z,16.48
2023-01-29T05:03:27.636Z,17.92
2023-01-29T05:05:59.580Z,18.83
2023-01-29T05:08:30.044Z,19.35
2023-01-29T05:11:01.228Z,17.90
2023-01-29T05:13:32.857Z,16.65
2023-01-29T05:16:05.862Z,17.27
2023-01-29T05:18:34.760Z,17.92
2023-01-29T05:21:08.042Z,19.90
2023-01-29T05:23:36.510Z,18.23
2023-01-29T05:26:05.383Z,17.45
2023-01-29T05:28:33.812Z,20.58
2023-01-29T05:31:01.789Z,21.20
2023-01-29T05:33:33.043Z,19.60
2023-01-29T05:36:01.313Z,17.25
2023-01-29T05:38:31.098Z,18.10
2023-01-29T05:41:00.411Z,17.00
2023-01-29T05:43:28.388Z,20.48
2023-01-29T05:45:58.140Z,18.27
2023-01-29T05:48:28.137Z,19.58
2023-01-29T05:51:00.883Z,19.45
2023-01-29T05:53:32.402Z,16.67
2023-01-29T05:56:02.363Z,20.67
2023-01-29T05:58:32.650Z,16.70
2023-01-29T06:03:39.284Z,16.00
2023-01-29T06:06:08.265Z,19.17
2023-01-29T06:08:37.994Z,18.37
2023-01-29T06:11:09.898Z,22.15
2023-01-29T06:13:38.144Z,17.58
2023-01-29T06:16:06.994Z,21.92
2023-01-29T06:18:37.032Z,18.65
2023-01-29T06:21:06.525Z,22.17
2023-01-29T06:26:06.522Z,16.85
2023-01-29T06:28:34.817Z,18.02
2023-01-29T06:31:23.796Z,19.02
2023-01-29T06:33:53.199Z,19.48
2023-01-29T06:36:21.515Z,20.10
2023-01-29T06:38:49.653Z,18.85
2023-01-29T06:41:23.124Z,21.13
2023-01-29T06:43:52.737Z,19.88
2023-01-29T06:46:20.799Z,21.02
2023-01-29T06:48:49.200Z,19.02
2023-01-29T06:51:17.124Z,19.77
2023-01-29T06:53:46.540Z,19.60
2023-01-29T06:56:15.465Z,19.40
2023-01-29T06:58:44.824Z,20.77
2023-01-29T07:01:29.264Z,18.80
2023-01-29T07:04:03.025Z,20.95
2023-01-29T07:06:31.968Z,20.65
2023-01-29T07:09:00.563Z,19.80
2023-01-29T07:11:29.061Z,22.25
2023-01-29T07:13:58.436Z,20.08
2023-01-29T07:16:26.801Z,18.90
2023-01-29T07:18:55.818Z,19.83
2023-01-29T07:21:23.741Z,21.20
2023-01-29T07:23:52.490Z,21.48
2023-01-29T07:26:20.446Z,19.88
2023-01-29T07:28:48.506Z,21.02
2023-01-29T07:31:18.008Z,18.85
2023-01-29T07:33:47.150Z,19.95
2023-01-29T07:36:16.086Z,21.27
2023-01-29T07:38:44.060Z,20.90
2023-01-29T07:41:13.349Z,19.27
2023-01-29T07:43:46.663Z,22.55
2023-01-29T07:46:14.742Z,21.88
2023-01-29T07:48:44.080Z,19.63
2023-01-29T07:51:12.843Z,19.58
2023-01-29T07:53:40.718Z,21.77
2023-01-29T07:56:09.139Z,20.90
2023-01-29T07:58:37.530Z,20.77
2023-01-29T08:01:07.420Z,20.80
2023-01-29T08:03:35.939Z,21.98
2023-01-29T08:06:06.910Z,18.67
2023-01-29T08:08:34.971Z,20.30
2023-01-29T08:11:03.466Z,20.80
2023-01-29T08:13:32.381Z,19.73
2023-01-29T08:16:02.135Z,22.00
2023-01-29T08:18:31.543Z,22.77
2023-01-29T08:21:03.037Z,23.83
2023-01-29T08:23:32.421Z,25.45
2023-01-29T08:26:00.930Z,24.52
2023-01-29T08:28:29.406Z,18.27
2023-01-29T08:30:57.420Z,23.38
2023-01-29T08:33:38.636Z,22.08
2023-01-29T08:36:08.944Z,20.92
2023-01-29T08:38:38.420Z,19.70
2023-01-29T08:43:37.360Z,21.80
2023-01-29T08:46:05.889Z,18.17
2023-01-29T08:48:34.348Z,18.85
2023-01-29T08:51:05.069Z,19.10
2023-01-29T08:53:33.306Z,17.40
2023-01-29T08:56:02.912Z,21.67
2023-01-29T08:58:31.391Z,21.17
2023-01-29T09:01:06.847Z,22.73
2023-01-29T09:03:35.773Z,22.95
2023-01-29T09:06:03.992Z,22.83
2023-01-29T09:08:32.351Z,17.90
2023-01-29T09:11:01.213Z,20.15
2023-01-29T09:13:30.817Z,22.43
2023-01-29T09:16:01.616Z,22.67
2023-01-29T09:18:30.253Z,20.98
2023-01-29T09:20:58.663Z,20.27
2023-01-29T09:23:27.559Z,22.10
2023-01-29T09:25:55.447Z,20.02
2023-01-29T09:28:23.909Z,20.20
2023-01-29T09:30:54.122Z,23.52
2023-01-29T09:33:22.218Z,20.15
2023-01-29T09:35:50.073Z,16.10
2023-01-29T09:38:18.795Z,15.85
2023-01-29T09:40:55.955Z,19.95
2023-01-29T09:43:33.798Z,21.27
2023-01-29T09:46:07.309Z,20.73
2023-01-29T09:48:37.908Z,18.73
2023-01-29T09:51:12.765Z,21.90
2023-01-29T09:53:47.777Z,19.98
2023-01-29T09:56:20.289Z,19.77
2023-01-29T09:58:49.925Z,18.08
2023-01-29T10:01:26.994Z,21.38
2023-01-29T10:04:15.453Z,20.90
2023-01-29T10:06:57.644Z,19.58
2023-01-29T10:09:47.138Z,20.10
2023-01-29T10:12:37.058Z,20.27
2023-01-29T10:15:19.449Z,17.85
2023-01-29T10:18:03.415Z,18.35
2023-01-29T10:20:45.294Z,20.40
2023-01-29T10:23:22.955Z,20.58
2023-01-29T10:25:53.983Z,21.27
2023-01-29T10:28:26.788Z,19.33
2023-01-29T10:30:59.073Z,19.23
2023-01-29T10:33:48.783Z,17.65
2023-01-29T10:36:27.485Z,16.38
2023-01-29T10:38:56.785Z,20.17
2023-01-29T10:41:43.175Z,15.15
2023-01-29T10:44:25.478Z,17.60
2023-01-29T10:47:17.479Z,16.52
2023-01-29T10:50:10.265Z,19.02
2023-01-29T10:52:51.820Z,17.83
2023-01-29T10:55:29.835Z,16.98
2023-01-29T10:58:08.506Z,17.23
2023-01-29T11:00:40.484Z,17.15
2023-01-29T11:03:27.126Z,17.13
2023-01-29T11:06:14.673Z,17.15
2023-01-29T11:08:47.955Z,19.20
2023-01-29T11:11:18.731Z,16.63
2023-01-29T11:13:52.030Z,17.55
2023-01-29T11:16:20.878Z,17.25
2023-01-29T11:18:55.842Z,16.42
2023-01-29T11:21:28.735Z,16.40
2023-01-29T11:24:18.797Z,16.75
2023-01-29T11:26:50.149Z,16.73
2023-01-29T11:29:38.662Z,18.00
2023-01-29T11:32:09.522Z,15.68
2023-01-29T11:34:58.256Z,16.75
2023-01-29T11:37:34.814Z,17.20
2023-01-29T11:40:02.867Z,16.75
2023-01-29T11:42:33.822Z,14.45
2023-01-29T11:45:02.187Z,15.70
2023-01-29T11:47:31.496Z,16.52
2023-01-29T11:50:04.154Z,17.05
2023-01-29T11:52:40.787Z,16.45
2023-01-29T11:55:20.665Z,16.60
2023-01-29T11:57:52.698Z,18.60
2023-01-29T12:00:24.772Z,15.98
2023-01-29T12:02:56.664Z,14.65
2023-01-29T12:05:27.263Z,16.25
2023-01-29T12:08:01.583Z,15.95
2023-01-29T12:10:36.500Z,16.52
2023-01-29T12:13:20.045Z,15.98
2023-01-29T12:15:50.463Z,16.33
2023-01-29T12:18:31.475Z,15.02
2023-01-29T12:21:04.359Z,15.90
2023-01-29T12:23:39.866Z,18.88
2023-01-29T12:26:16.475Z,16.05
2023-01-29T12:28:53.145Z,15.02
2023-01-29T12:31:30.251Z,16.95
2023-01-29T12:34:04.283Z,16.63
2023-01-29T12:36:38.667Z,13.85
2023-01-29T12:39:11.161Z,15.65
2023-01-29T12:41:46.122Z,14.38
2023-01-29T12:44:19.367Z,14.07
2023-01-29T12:46:53.436Z,14.63
2023-01-29T12:49:24.934Z,13.95
2023-01-29T12:52:00.208Z,14.63
2023-01-29T12:54:36.305Z,12.90
2023-01-29T12:57:12.019Z,16.67
2023-01-29T12:59:44.336Z,13.43
2023-01-29T13:02:25.269Z,15.55
2023-01-29T13:04:58.557Z,11.67
2023-01-29T13:07:32.613Z,14.20
2023-01-29T13:10:08.417Z,12.93
2023-01-29T13:12:38.239Z,13.48
2023-01-29T13:15:16.684Z,14.27
2023-01-29T13:17:48.623Z,14.15
2023-01-29T13:20:22.144Z,13.50
2023-01-29T13:22:54.456Z,14.35
2023-01-29T13:25:23.944Z,13.68
2023-01-29T13:27:52.120Z,14.30
2023-01-29T13:30:30.297Z,13.52
2023-01-29T13:33:09.545Z,11.90
2023-01-29T13:35:41.315Z,13.73
2023-01-29T13:38:24.279Z,15.35
2023-01-29T13:40:57.720Z,14.88
2023-01-29T13:43:26.066Z,13.18
2023-01-29T13:45:55.883Z,13.90
2023-01-29T13:48:28.279Z,14.73
2023-01-29T13:50:58.478Z,14.25
2023-01-29T13:53:29.672Z,15.35
2023-01-29T13:56:30.301Z,14.07
2023-01-29T13:58:59.490Z,12.98
2023-01-29T14:02:03.861Z,14.82
2023-01-29T14:04:34.199Z,15.60
2023-01-29T14:07:04.100Z,14.98
2023-01-29T14:10:05.537Z,15.40
2023-01-29T14:12:50.760Z,16.02
2023-01-29T14:15:32.376Z,14.82
2023-01-29T14:18:18.307Z,15.63
2023-01-29T14:21:01.166Z,16.75
2023-01-29T14:23:35.731Z,16.83
2023-01-29T14:26:06.941Z,16.63
2023-01-29T14:28:36.496Z,14.35
2023-01-29T14:33:37.542Z,11.93
2023-01-29T14:36:08.013Z,15.32
2023-01-29T14:38:37.363Z,17.13
2023-01-29T14:41:16.046Z,17.30
2023-01-29T14:43:46.056Z,15.65
2023-01-29T14:46:43.561Z,16.13
2023-01-29T14:49:12.684Z,15.68
2023-01-29T14:51:45.749Z,15.82
2023-01-29T14:54:22.870Z,15.55
2023-01-29T14:56:59.546Z,14.13
2023-01-29T14:59:34.543Z,16.45
2023-01-29T15:02:14.291Z,14.48
2023-01-29T15:04:48.062Z,17.10
2023-01-29T15:07:31.078Z,15.82
2023-01-29T15:10:21.882Z,15.05
2023-01-29T15:12:58.130Z,12.75
2023-01-29T15:15:38.981Z,14.90
2023-01-29T15:18:10.234Z,16.23
2023-01-29T15:20:41.980Z,14.82
2023-01-29T15:23:27.126Z,16.58
2023-01-29T15:25:57.679Z,14.63
2023-01-29T15:28:28.298Z,14.75
2023-01-29T15:30:59.244Z,15.43
2023-01-29T15:33:29.166Z,15.10
2023-01-29T15:36:07.398Z,14.48
2023-01-29T15:38:35.940Z,12.93
2023-01-29T15:41:16.052Z,14.00
2023-01-29T15:43:47.324Z,12.50
2023-01-29T15:48:52.156Z,12.82
2023-01-29T15:51:23.873Z,14.30
2023-01-29T15:53:54.938Z,14.43
2023-01-29T15:56:28.636Z,14.57
2023-01-29T15:59:00.126Z,14.30
2023-01-29T16:01:30.606Z,14.75
2023-01-29T16:04:02.371Z,14.63
2023-01-29T16:06:35.627Z,14.80
2023-01-29T16:09:06.675Z,14.35
2023-01-29T16:11:36.282Z,13.68
2023-01-29T16:14:05.847Z,16.65
2023-01-29T16:21:46.433Z,14.98
2023-01-29T16:24:22.260Z,15.07
2023-01-29T16:26:53.493Z,13.70
2023-01-29T16:29:23.527Z,15.18
2023-01-29T16:32:02.205Z,16.02
2023-01-29T16:34:33.615Z,16.20
2023-01-29T16:37:03.834Z,16.55
2023-01-29T16:39:34.924Z,14.55
2023-01-29T16:42:23.754Z,15.35
2023-01-29T16:44:54.183Z,13.90
2023-01-29T16:47:29.527Z,15.00
2023-01-29T16:50:01.394Z,13.80
2023-01-29T16:52:31.438Z,16.88
2023-01-29T16:57:35.457Z,14.90
2023-01-29T17:00:09.397Z,13.90
2023-01-29T17:02:40.816Z,13.82
2023-01-29T17:05:11.870Z,13.65
2023-01-29T17:07:40.118Z,13.00
2023-01-29T17:10:08.784Z,13.85
2023-01-29T17:12:38.899Z,14.93
2023-01-29T17:15:37.013Z,14.57
2023-01-29T17:18:13.045Z,13.13
2023-01-29T17:20:41.477Z,14.05
2023-01-29T17:23:09.425Z,14.20
2023-01-29T17:25:38.233Z,12.57
2023-01-29T17:28:07.400Z,12.98
2023-01-29T17:30:37.586Z,15.48
2023-01-29T17:33:15.103Z,14.75
2023-01-29T17:35:44.300Z,12.65
2023-01-29T17:38:24.273Z,13.80
2023-01-29T17:40:57.758Z,12.45
2023-01-29T17:43:25.745Z,13.90
2023-01-29T17:45:55.664Z,12.25
2023-01-29T17:48:25.719Z,14.82
2023-01-29T17:50:56.456Z,15.57
2023-01-29T17:53:30.531Z,13.48
2023-01-29T17:56:05.030Z,11.38
2023-01-29T17:58:32.915Z,14.52
2023-01-29T18:01:02.617Z,13.23
2023-01-29T18:03:31.276Z,14.07
2023-01-29T18:05:59.405Z,15.80
2023-01-29T18:08:31.225Z,15.57
2023-01-29T18:10:59.613Z,13.90
2023-01-29T18:13:27.585Z,15.27
2023-01-29T18:15:56.725Z,16.52
2023-01-29T18:18:26.366Z,14.93
2023-01-29T18:20:54.546Z,16.35
2023-01-29T18:23:22.799Z,15.80
2023-01-29T18:25:52.799Z,15.80
2023-01-29T18:28:20.832Z,16.25
2023-01-29T18:30:49.031Z,17.17
2023-01-29T18:33:18.107Z,20.10
2023-01-29T18:35:49.104Z,16.25
2023-01-29T18:38:19.052Z,20.13
2023-01-29T18:40:47.119Z,18.50
2023-01-29T18:43:16.068Z,16.52
2023-01-29T18:45:44.772Z,19.63
2023-01-29T18:48:12.793Z,18.20
2023-01-29T18:50:41.294Z,17.90
2023-01-29T18:53:11.158Z,17.88
2023-01-29T18:55:39.532Z,18.23
2023-01-29T18:58:27.494Z,19.33
2023-01-29T19:00:55.471Z,18.35
2023-01-29T19:03:23.427Z,19.60
2023-01-29T19:05:52.336Z,16.05
2023-01-29T19:08:21.573Z,18.25
2023-01-29T19:10:50.119Z,16.40
2023-01-29T19:13:18.075Z,17.35
2023-01-29T19:15:48.106Z,18.88
2023-01-29T19:18:16.155Z,19.30
2023-01-29T19:20:44.296Z,19.10
2023-01-29T19:23:12.188Z,18.02
2023-01-29T19:25:41.649Z,17.58
2023-01-29T19:28:09.635Z,19.25
2023-01-29T19:30:38.093Z,18.08
2023-01-29T19:33:06.780Z,20.10
2023-01-29T19:35:37.826Z,18.05
2023-01-29T19:38:06.231Z,16.70
2023-01-29T19:40:34.746Z,17.05
2023-01-29T19:43:04.061Z,17.38
2023-01-29T19:45:48.887Z,21.42
2023-01-29T19:48:22.149Z,19.88
2023-01-29T19:50:54.189Z,18.58
2023-01-29T19:53:22.898Z,16.77
2023-01-29T19:55:58.903Z,18.85
2023-01-29T19:58:29.482Z,16.15
2023-01-29T20:00:58.495Z,19.38
2023-01-29T20:03:29.727Z,18.37
2023-01-29T20:06:02.877Z,14.98
2023-01-29T20:08:31.166Z,18.27
2023-01-29T20:10:59.191Z,16.55
2023-01-29T20:13:30.038Z,16.20
2023-01-29T20:15:58.128Z,16.52
2023-01-29T20:18:26.362Z,16.42
2023-01-29T20:20:54.837Z,16.75
2023-01-29T20:23:37.044Z,13.35
2023-01-29T20:26:08.476Z,17.23
2023-01-29T20:28:38.261Z,15.50
2023-01-29T20:31:09.804Z,15.57
2023-01-29T20:33:39.679Z,15.65
2023-01-29T20:36:10.910Z,15.80
2023-01-29T20:38:40.139Z,17.50
2023-01-29T20:41:09.248Z,14.68
2023-01-29T20:43:40.579Z,16.27
2023-01-29T20:46:09.193Z,17.15
2023-01-29T20:48:37.885Z,13.95
2023-01-29T20:51:10.312Z,16.83
2023-01-29T20:53:38.498Z,17.48
2023-01-29T20:56:07.651Z,14.60
2023-01-29T20:58:36.790Z,13.63
2023-01-29T21:01:10.588Z,10.90
2023-01-29T21:03:40.122Z,14.80
2023-01-29T21:06:09.064Z,13.50
2023-01-29T21:08:38.147Z,14.95
2023-01-29T21:11:11.038Z,14.32
2023-01-29T21:13:39.085Z,15.43
2023-01-29T21:16:11.739Z,13.00
2023-01-29T21:18:40.490Z,13.27
2023-01-29T21:21:08.786Z,13.07
2023-01-29T21:23:37.792Z,13.33
2023-01-29T21:26:07.293Z,13.20
2023-01-29T21:28:36.005Z,14.18
2023-01-29T21:31:05.726Z,14.38
2023-01-29T21:33:39.283Z,11.80
2023-01-29T21:36:10.672Z,14.65
2023-01-29T21:38:38.968Z,13.55
2023-01-29T21:41:08.881Z,15.23
2023-01-29T21:43:37.034Z,13.68
2023-01-29T21:46:11.553Z,12.30
2023-01-29T21:48:42.359Z,14.68
2023-01-29T21:51:10.376Z,11.18
2023-01-29T21:53:38.304Z,13.02
2023-01-29T21:56:07.374Z,14.93
2023-01-29T21:58:35.495Z,13.93
2023-01-29T22:01:36.403Z,14.52
2023-01-29T22:03:54.906Z,12.90
2023-01-29T22:06:22.910Z,16.63
2023-01-29T22:08:51.344Z,13.95
2023-01-29T22:11:20.061Z,12.90
2023-01-29T22:13:47.990Z,16.00
2023-01-29T22:16:16.434Z,15.68
2023-01-29T22:18:44.399Z,15.63
2023-01-29T22:21:13.731Z,13.65
2023-01-29T22:23:42.146Z,14.98
2023-01-29T22:26:12.313Z,16.45
2023-01-29T22:28:40.665Z,15.05
2023-01-29T22:31:08.905Z,13.93
2023-01-29T22:33:37.434Z,14.50
2023-01-29T22:36:06.142Z,14.00
2023-01-29T22:38:38.116Z,16.77
2023-01-29T22:41:07.211Z,14.80
2023-01-29T22:43:35.984Z,12.75
2023-01-29T22:46:09.106Z,14.02
2023-01-29T22:48:37.183Z,12.68
2023-01-29T22:51:14.868Z,15.23
2023-01-29T22:53:49.256Z,14.50
2023-01-29T22:56:18.170Z,13.18
2023-01-29T22:58:46.280Z,16.88
2023-01-29T23:01:14.388Z,15.90
2023-01-29T23:03:42.955Z,15.45
2023-01-29T23:06:11.214Z,15.10
2023-01-29T23:08:39.137Z,16.15
2023-01-29T23:11:19.099Z,16.75
2023-01-29T23:13:49.577Z,15.32
2023-01-29T23:16:19.833Z,15.32
2023-01-29T23:18:51.124Z,15.90
2023-01-29T23:21:21.368Z,14.02
2023-01-29T23:23:49.650Z,18.25
2023-01-29T23:26:40.699Z,19.10
2023-01-29T23:29:08.738Z,17.77
2023-01-29T23:31:36.805Z,19.15
2023-01-29T23:34:05.893Z,17.48
2023-01-29T23:36:33.875Z,19.52
2023-01-29T23:39:02.350Z,17.13
2023-01-29T23:41:32.301Z,18.25
2023-01-29T23:46:28.140Z,19.25
2023-01-29T23:48:56.605Z,15.80
2023-01-29T23:51:24.919Z,18.73
2023-01-29T23:53:53.451Z,17.75
2023-01-29T23:56:22.008Z,16.90
2023-01-29T23:58:55.600Z,18.42
